Time;durP1;ratioP1;P1;durP2;ratioP2;P2;SDS_P1;SDS_P2;PMS_P1;PMS_P2;Temp;Humidity;BMP_temperature;BMP_pressure;BME280_temperature;BME280_humidity;BME280_pressure;Samples;Min_cycle;Max_cycle;Signal;HPM_P1;HPM_P2
2023/06/12 00:02:09;;;;;;;5.68;3.67;;;;;;;;;;4999348;28;20046;-86
2023/06/12 00:04:35;;;;;;;4.53;3.80;;;;;;;;;;5013465;28;20393;-85
2023/06/12 00:07:02;;;;;;;6.75;3.80;;;;;;;;;;4998916;28;20044;-84
2023/06/12 00:09:28;;;;;;;7.18;3.40;;;;;;;;;;4997110;28;20061;-85
2023/06/12 00:11:55;;;;;;;7.47;3.72;;;;;;;;;;4999270;28;20472;-85
2023/06/12 00:14:21;;;;;;;5.05;3.80;;;;;;;;;;4999030;28;20067;-85
2023/06/12 00:16:48;;;;;;;5.80;3.63;;;;;;;;;;4996674;28;20070;-85
2023/06/12 00:19:17;;;;;;;7.15;3.60;;;;;;;;;;4985668;28;20443;-85
2023/06/12 00:21:43;;;;;;;6.88;3.47;;;;;;;;;;4998106;28;20116;-85
2023/06/12 00:24:10;;;;;;;6.30;3.65;;;;;;;;;;5011785;28;20057;-85
2023/06/12 00:26:36;;;;;;;8.63;3.90;;;;;;;;;;4987447;28;20042;-85
2023/06/12 00:29:02;;;;;;;5.78;3.67;;;;;;;;;;4998227;28;20141;-84
2023/06/12 00:31:28;;;;;;;7.40;3.45;;;;;;;;;;4997826;28;20056;-86
2023/06/12 00:33:54;;;;;;;5.47;4.00;;;;;;;;;;4998944;28;20046;-85
2023/06/12 00:36:27;;;;;;;7.03;4.07;;;;;;;;;;4998944;28;20046;-85
2023/06/12 00:38:53;;;;;;;5.15;3.70;;;;;;;;;;4994905;28;20571;-85
2023/06/12 00:41:19;;;;;;;5.75;3.60;;;;;;;;;;4998084;28;20041;-85
2023/06/12 00:43:46;;;;;;;4.55;3.53;;;;;;;;;;5011259;28;20613;-84
2023/06/12 00:46:12;;;;;;;4.93;3.47;;;;;;;;;;4996256;28;20045;-85
2023/06/12 00:48:40;;;;;;;7.05;3.75;;;;;;;;;;4998791;28;20484;-84
2023/06/12 00:51:10;;;;;;;5.82;3.58;;;;;;;;;;5001730;28;20101;-84
2023/06/12 00:53:36;;;;;;;5.22;3.47;;;;;;;;;;4979090;28;20392;-85
2023/06/12 00:56:02;;;;;;;4.47;3.40;;;;;;;;;;4993764;28;20121;-85
2023/06/12 00:58:29;;;;;;;6.88;3.70;;;;;;;;;;4992781;28;20125;-85
2023/06/12 01:00:56;;;;;;;8.18;4.22;;;;;;;;;;4979531;28;20450;-85
2023/06/12 01:03:24;;;;;;;5.53;3.40;;;;;;;;;;5011347;28;20045;-85
2023/06/12 01:05:51;;;;;;;6.32;3.72;;;;;;;;;;5016160;28;20125;-85
2023/06/12 01:08:17;;;;;;;5.72;3.40;;;;;;;;;;5014251;28;20150;-85
2023/06/12 01:10:51;;;;;;;7.68;3.60;;;;;;;;;;4996622;28;20049;-86
2023/06/12 01:13:21;;;;;;;5.38;3.42;;;;;;;;;;4997281;28;20060;-85
2023/06/12 01:15:48;;;;;;;5.05;3.42;;;;;;;;;;5014535;28;20042;-85
2023/06/12 01:18:14;;;;;;;4.35;3.20;;;;;;;;;;5013668;28;20543;-86
2023/06/12 01:20:42;;;;;;;8.00;3.75;;;;;;;;;;5009120;28;20053;-85
2023/06/12 01:23:15;;;;;;;6.40;3.80;;;;;;;;;;5006134;28;20088;-86
2023/06/12 01:25:44;;;;;;;4.38;3.33;;;;;;;;;;4978265;28;20501;-85
2023/06/12 01:28:23;;;;;;;7.72;4.00;;;;;;;;;;5006041;28;20037;-85
2023/06/12 01:30:59;;;;;;;5.07;3.70;;;;;;;;;;5012857;28;20108;-85
2023/06/12 01:33:35;;;;;;;6.63;3.65;;;;;;;;;;5013593;28;20105;-85
2023/06/12 01:36:03;;;;;;;5.13;3.35;;;;;;;;;;4994814;28;20046;-84
2023/06/12 01:38:33;;;;;;;5.78;3.72;;;;;;;;;;4994585;28;20050;-85
2023/06/12 01:41:00;;;;;;;6.80;3.53;;;;;;;;;;4978995;28;20153;-85
2023/06/12 01:43:26;;;;;;;5.75;3.40;;;;;;;;;;4994580;28;20042;-85
2023/06/12 01:45:52;;;;;;;4.47;3.42;;;;;;;;;;4993040;28;20125;-85
2023/06/12 01:48:19;;;;;;;7.55;3.83;;;;;;;;;;4993856;28;20049;-85
2023/06/12 01:50:45;;;;;;;8.82;3.83;;;;;;;;;;4994409;28;20047;-85
2023/06/12 01:53:13;;;;;;;6.13;3.53;;;;;;;;;;4997845;28;20472;-85
2023/06/12 01:55:41;;;;;;;4.60;3.63;;;;;;;;;;5010741;28;20068;-84
2023/06/12 01:58:08;;;;;;;5.60;3.60;;;;;;;;;;4981845;28;20066;-86
2023/06/12 02:00:35;;;;;;;5.50;4.07;;;;;;;;;;4979408;28;20050;-85
2023/06/12 02:03:01;;;;;;;6.28;3.78;;;;;;;;;;4977965;28;20136;-85
2023/06/12 02:05:27;;;;;;;4.95;3.53;;;;;;;;;;4996486;28;20042;-85
2023/06/12 02:07:56;;;;;;;7.57;3.60;;;;;;;;;;4997493;28;20050;-85
2023/06/12 02:10:25;;;;;;;4.80;3.80;;;;;;;;;;4988991;28;20073;-85
2023/06/12 02:12:51;;;;;;;5.20;3.80;;;;;;;;;;4998876;28;20037;-85
2023/06/12 02:15:20;;;;;;;6.75;3.67;;;;;;;;;;5017414;28;20088;-85
2023/06/12 02:17:46;;;;;;;8.40;3.63;;;;;;;;;;5017404;28;20475;-85
2023/06/12 02:20:12;;;;;;;11.05;4.63;;;;;;;;;;5001299;28;20053;-85
2023/06/12 02:22:38;;;;;;;6.43;3.60;;;;;;;;;;5001057;28;20056;-85
2023/06/12 02:25:07;;;;;;;6.30;3.80;;;;;;;;;;5001297;28;20115;-84
2023/06/12 02:27:33;;;;;;;6.43;4.15;;;;;;;;;;5001274;28;20050;-85
2023/06/12 02:30:01;;;;;;;6.78;3.88;;;;;;;;;;4995965;28;20042;-85
2023/06/12 02:32:27;;;;;;;6.57;3.50;;;;;;;;;;5007256;28;20430;-85
2023/06/12 02:34:54;;;;;;;6.75;3.80;;;;;;;;;;4997326;28;20038;-85
2023/06/12 02:37:20;;;;;;;5.63;4.05;;;;;;;;;;4999500;28;20485;-85
2023/06/12 02:39:46;;;;;;;10.82;4.10;;;;;;;;;;5000439;28;20044;-85
2023/06/12 02:42:13;;;;;;;7.82;4.30;;;;;;;;;;5001060;28;20095;-85
2023/06/12 02:44:39;;;;;;;8.43;4.50;;;;;;;;;;4995645;28;20046;-84
2023/06/12 02:47:05;;;;;;;13.77;4.60;;;;;;;;;;5015973;28;20133;-84
2023/06/12 02:49:31;;;;;;;8.68;4.95;;;;;;;;;;5000092;28;20072;-85
2023/06/12 02:51:58;;;;;;;7.47;5.78;;;;;;;;;;4981296;28;20534;-84
2023/06/12 02:54:26;;;;;;;11.93;5.68;;;;;;;;;;4997415;28;20046;-85
2023/06/12 02:56:52;;;;;;;11.70;6.30;;;;;;;;;;4980923;28;20101;-85
2023/06/12 02:59:19;;;;;;;9.57;6.80;;;;;;;;;;4996426;28;20077;-85
2023/06/12 03:01:46;;;;;;;10.00;6.22;;;;;;;;;;4991640;28;20080;-85
2023/06/12 03:04:12;;;;;;;9.70;6.05;;;;;;;;;;4999841;28;20042;-85
2023/06/12 03:06:39;;;;;;;11.43;6.93;;;;;;;;;;5000072;28;20048;-85
2023/06/12 03:09:08;;;;;;;8.57;6.60;;;;;;;;;;5016201;28;20042;-85
2023/06/12 03:11:35;;;;;;;10.00;6.60;;;;;;;;;;4999392;28;20045;-85
2023/06/12 03:14:02;;;;;;;10.52;6.15;;;;;;;;;;5015629;28;20079;-85
2023/06/12 03:16:28;;;;;;;9.50;5.85;;;;;;;;;;5000201;28;20053;-85
2023/06/12 03:18:54;;;;;;;7.25;5.60;;;;;;;;;;5016338;28;20392;-85
2023/06/12 03:21:20;;;;;;;9.63;5.25;;;;;;;;;;4999936;28;20069;-85
2023/06/12 03:23:47;;;;;;;7.57;5.40;;;;;;;;;;5000057;28;20053;-85
2023/06/12 03:26:14;;;;;;;9.60;5.38;;;;;;;;;;5015848;28;20041;-85
2023/06/12 03:28:40;;;;;;;9.07;5.03;;;;;;;;;;5014571;28;20084;-85
2023/06/12 03:31:06;;;;;;;8.70;4.93;;;;;;;;;;5016034;28;20096;-85
2023/06/12 03:33:32;;;;;;;9.13;4.82;;;;;;;;;;5011250;28;20501;-85
2023/06/12 03:35:58;;;;;;;5.97;4.55;;;;;;;;;;4996806;28;20046;-85
2023/06/12 03:38:25;;;;;;;9.43;4.80;;;;;;;;;;4991192;28;20042;-85
2023/06/12 03:40:51;;;;;;;7.78;4.97;;;;;;;;;;4997404;28;20034;-85
2023/06/12 03:43:17;;;;;;;9.85;4.90;;;;;;;;;;5010664;28;20104;-85
2023/06/12 03:45:44;;;;;;;7.95;5.15;;;;;;;;;;5000188;28;20068;-85
2023/06/12 03:48:10;;;;;;;7.50;4.38;;;;;;;;;;4996229;28;20058;-85
2023/06/12 03:50:36;;;;;;;8.60;4.85;;;;;;;;;;4980033;28;20452;-85
2023/06/12 03:53:02;;;;;;;8.10;4.57;;;;;;;;;;4979670;28;20466;-85
2023/06/12 03:55:28;;;;;;;11.48;4.97;;;;;;;;;;4981935;28;20520;-85
2023/06/12 03:57:57;;;;;;;8.55;4.90;;;;;;;;;;5004728;28;20046;-85
2023/06/12 04:00:23;;;;;;;14.25;5.20;;;;;;;;;;5022550;28;20105;-85
2023/06/12 04:02:55;;;;;;;8.52;4.65;;;;;;;;;;5001156;28;20137;-85
2023/06/12 04:05:21;;;;;;;6.32;5.40;;;;;;;;;;4995628;28;20049;-85
2023/06/12 04:07:48;;;;;;;8.07;4.90;;;;;;;;;;4998359;28;20500;-85
2023/06/12 04:10:14;;;;;;;7.40;5.15;;;;;;;;;;4999729;28;20485;-85
2023/06/12 04:12:40;;;;;;;5.97;4.95;;;;;;;;;;5011608;28;20458;-84
2023/06/12 04:15:07;;;;;;;7.47;5.10;;;;;;;;;;4995815;28;20057;-85
2023/06/12 04:17:34;;;;;;;7.95;5.10;;;;;;;;;;5005851;28;20141;-85
2023/06/12 04:20:01;;;;;;;9.15;5.53;;;;;;;;;;4998431;28;20053;-85
2023/06/12 04:22:27;;;;;;;8.73;5.18;;;;;;;;;;4995006;28;20448;-84
2023/06/12 04:25:04;;;;;;;8.63;5.05;;;;;;;;;;4998017;28;20054;-84
2023/06/12 04:27:31;;;;;;;9.70;5.10;;;;;;;;;;4993829;28;20125;-85
2023/06/12 04:29:59;;;;;;;6.50;5.00;;;;;;;;;;4979075;28;20069;-85
2023/06/12 04:32:25;;;;;;;9.68;4.95;;;;;;;;;;4978695;28;20052;-84
2023/06/12 04:34:52;;;;;;;8.52;4.80;;;;;;;;;;4989480;28;20053;-84
2023/06/12 04:37:18;;;;;;;8.55;5.50;;;;;;;;;;4996781;28;20050;-85
2023/06/12 04:39:48;;;;;;;8.68;5.38;;;;;;;;;;4997757;28;20080;-85
2023/06/12 04:42:16;;;;;;;8.40;5.13;;;;;;;;;;4994937;28;20061;-84
2023/06/12 04:44:43;;;;;;;8.63;5.20;;;;;;;;;;4989709;28;20100;-85
2023/06/12 04:47:10;;;;;;;9.65;5.05;;;;;;;;;;4998548;28;20546;-85
2023/06/12 04:49:45;;;;;;;9.73;5.20;;;;;;;;;;4998576;28;20050;-85
2023/06/12 04:52:12;;;;;;;6.85;5.00;;;;;;;;;;5014542;28;20073;-85
2023/06/12 04:54:44;;;;;;;8.07;4.70;;;;;;;;;;4993649;28;20057;-85
2023/06/12 04:57:13;;;;;;;6.55;4.68;;;;;;;;;;4979778;28;20050;-85
2023/06/12 04:59:40;;;;;;;8.48;5.10;;;;;;;;;;4994297;28;20042;-85
2023/06/12 05:02:10;;;;;;;7.15;4.57;;;;;;;;;;4994617;28;20049;-85
2023/06/12 05:04:37;;;;;;;6.65;4.72;;;;;;;;;;5002834;28;20042;-85
2023/06/12 05:07:08;;;;;;;8.35;4.65;;;;;;;;;;5014276;28;20088;-85
2023/06/12 05:09:34;;;;;;;7.85;4.78;;;;;;;;;;5014837;28;20096;-85
2023/06/12 05:12:02;;;;;;;10.38;4.60;;;;;;;;;;4993996;28;20109;-85
2023/06/12 05:14:28;;;;;;;12.55;5.13;;;;;;;;;;5013902;28;20038;-85
2023/06/12 05:16:57;;;;;;;8.07;4.80;;;;;;;;;;5013633;28;20424;-82
2023/06/12 05:19:27;;;;;;;8.90;4.88;;;;;;;;;;4997369;28;20061;-84
2023/06/12 05:22:00;;;;;;;7.15;4.60;;;;;;;;;;5007233;28;20058;-83
2023/06/12 05:24:29;;;;;;;7.10;4.70;;;;;;;;;;4984095;28;20404;-84
2023/06/12 05:26:56;;;;;;;8.65;4.88;;;;;;;;;;4992021;28;20058;-87
2023/06/12 05:33:07;;;;;;;7.90;5.15;;;;;;;;;;4956308;28;20070;-84
2023/06/12 05:35:45;;;;;;;7.25;4.60;;;;;;;;;;4930416;29;20039;-84
2023/06/12 05:38:11;;;;;;;7.88;4.90;;;;;;;;;;4936484;29;20198;-83
2023/06/12 05:40:43;;;;;;;9.70;4.25;;;;;;;;;;4919286;29;20094;-83
2023/06/12 05:43:09;;;;;;;10.27;4.53;;;;;;;;;;4916314;29;20075;-83
2023/06/12 05:45:36;;;;;;;6.97;4.47;;;;;;;;;;4952031;29;20094;-83
2023/06/12 05:51:25;;;;;;;8.85;4.78;;;;;;;;;;4950937;28;20042;-84
2023/06/12 05:54:31;;;;;;;;;;;;;;;;;;;;;
2023/06/12 05:57:05;;;;;;;8.95;5.28;;;;;;;;;;4912367;29;20044;-84
2023/06/12 06:10:33;;;;;;;6.78;5.03;;;;;;;;;;4808446;29;20081;-83
2023/06/12 06:13:28;;;;;;;7.85;4.57;;;;;;;;;;4793245;29;20057;-85
2023/06/12 06:16:01;;;;;;;7.82;4.38;;;;;;;;;;4821658;29;20050;-83
2023/06/12 06:18:27;;;;;;;8.65;4.45;;;;;;;;;;4796497;29;20069;-84
2023/06/12 06:20:54;;;;;;;9.32;4.65;;;;;;;;;;4819949;29;20091;-84
2023/06/12 06:23:32;;;;;;;6.88;4.55;;;;;;;;;;4818429;29;20066;-84
2023/06/12 06:25:58;;;;;;;7.90;5.15;;;;;;;;;;4809662;29;20046;-83
2023/06/12 06:28:24;;;;;;;9.90;4.93;;;;;;;;;;4813903;29;20058;-84
2023/06/12 06:30:52;;;;;;;9.68;4.80;;;;;;;;;;4835061;29;20053;-84
2023/06/12 06:33:19;;;;;;;8.13;5.05;;;;;;;;;;4826932;29;20477;-84
2023/06/12 06:35:45;;;;;;;5.88;4.78;;;;;;;;;;4870143;29;20042;-84
2023/06/12 06:38:11;;;;;;;7.20;5.15;;;;;;;;;;4917584;29;20087;-84
2023/06/12 06:40:37;;;;;;;10.73;5.13;;;;;;;;;;4969554;28;20093;-84
2023/06/12 06:43:09;;;;;;;7.85;4.93;;;;;;;;;;4990546;28;20042;-84
2023/06/12 06:45:35;;;;;;;7.40;4.97;;;;;;;;;;4987405;28;20400;-84
2023/06/12 06:48:01;;;;;;;6.72;4.35;;;;;;;;;;4995174;28;20357;-83
2023/06/12 06:50:27;;;;;;;10.32;5.47;;;;;;;;;;5009780;28;20049;-83
2023/06/12 06:52:56;;;;;;;8.27;5.38;;;;;;;;;;4995455;28;20400;-83
2023/06/12 06:55:22;;;;;;;8.45;5.05;;;;;;;;;;4990567;28;20451;-84
2023/06/12 06:57:50;;;;;;;6.80;4.68;;;;;;;;;;4993288;28;20559;-83
2023/06/12 07:00:18;;;;;;;6.63;4.82;;;;;;;;;;5012819;28;20052;-84
2023/06/12 07:02:45;;;;;;;9.35;4.75;;;;;;;;;;5013816;28;20059;-84
2023/06/12 07:05:12;;;;;;;6.70;4.70;;;;;;;;;;4998910;28;20398;-85
2023/06/12 07:11:26;;;;;;;10.98;5.03;;;;;;;;;;5015356;28;20038;-85
2023/06/12 07:13:57;;;;;;;7.65;5.22;;;;;;;;;;5022680;28;20046;-84
2023/06/12 07:16:34;;;;;;;6.75;4.97;;;;;;;;;;4995274;28;20045;-85
2023/06/12 07:19:56;;;;;;;;;;;;;;;;;;;;;
2023/06/12 07:29:03;;;;;;;7.28;4.90;;;;;;;;;;4939846;29;20094;-87
2023/06/12 07:32:16;;;;;;;9.18;4.97;;;;;;;;;;4946126;29;20090;-89
2023/06/12 07:34:58;;;;;;;8.50;5.03;;;;;;;;;;4939946;29;20172;-87
2023/06/12 07:37:35;;;;;;;9.18;4.80;;;;;;;;;;4940545;29;20051;-87
2023/06/12 07:40:08;;;;;;;10.80;5.65;;;;;;;;;;4923257;29;20418;-87
2023/06/12 07:42:36;;;;;;;9.00;5.55;;;;;;;;;;4939381;29;20557;-86
2023/06/12 07:51:27;;;;;;;6.68;5.03;;;;;;;;;;4882545;29;20148;-87
2023/06/12 07:53:57;;;;;;;8.10;5.60;;;;;;;;;;4882819;29;20128;-87
2023/06/12 07:56:24;;;;;;;6.93;4.78;;;;;;;;;;4882589;29;20507;-84
2023/06/12 07:59:00;;;;;;;10.10;5.63;;;;;;;;;;4900203;29;20452;-85
2023/06/12 08:01:28;;;;;;;8.45;5.47;;;;;;;;;;4890152;29;20059;-86
2023/06/12 08:04:01;;;;;;;8.52;5.40;;;;;;;;;;4908141;29;20048;-85
2023/06/12 08:06:39;;;;;;;11.77;5.60;;;;;;;;;;4924277;29;20472;-86
2023/06/12 08:09:05;;;;;;;10.30;5.57;;;;;;;;;;4917613;29;20036;-86
2023/06/12 08:11:40;;;;;;;9.48;5.32;;;;;;;;;;4900058;29;20087;-87
2023/06/12 08:14:14;;;;;;;8.45;5.70;;;;;;;;;;4916211;29;20052;-87
2023/06/12 08:16:41;;;;;;;8.68;5.32;;;;;;;;;;4901287;29;20052;-86
2023/06/12 08:19:07;;;;;;;10.57;5.13;;;;;;;;;;4900841;29;20044;-86
2023/06/12 08:21:34;;;;;;;7.25;4.78;;;;;;;;;;4916315;29;20048;-87
2023/06/12 08:24:01;;;;;;;8.82;4.65;;;;;;;;;;4900868;29;20064;-87
2023/06/12 08:26:36;;;;;;;7.68;4.97;;;;;;;;;;4927488;28;20050;-87
2023/06/12 08:29:08;;;;;;;6.00;4.68;;;;;;;;;;4978337;28;20046;-86
2023/06/12 08:31:35;;;;;;;8.65;5.10;;;;;;;;;;4978191;28;20053;-87
2023/06/12 08:34:01;;;;;;;9.15;4.88;;;;;;;;;;5010011;28;20052;-85
2023/06/12 08:36:27;;;;;;;8.88;4.72;;;;;;;;;;5012264;28;20572;-86
2023/06/12 08:39:06;;;;;;;9.18;4.97;;;;;;;;;;4993419;28;20100;-86
2023/06/12 08:41:41;;;;;;;6.60;4.95;;;;;;;;;;5012794;28;20041;-86
2023/06/12 08:44:10;;;;;;;7.88;4.68;;;;;;;;;;5010605;28;20050;-85
2023/06/12 08:46:55;;;;;;;;;;;;;;;;;;;;;
2023/06/12 08:49:43;;;;;;;8.43;4.72;;;;;;;;;;4992094;28;20528;-87
2023/06/12 08:52:15;;;;;;;7.53;5.18;;;;;;;;;;4978456;28;20085;-86
2023/06/12 08:55:00;;;;;;;12.52;5.65;;;;;;;;;;5007936;28;20046;-86
2023/06/12 08:57:29;;;;;;;8.68;5.38;;;;;;;;;;4995658;28;20076;-86
2023/06/12 09:00:06;;;;;;;6.32;4.82;;;;;;;;;;5004708;28;20509;-86
2023/06/12 09:03:08;;;;;;;;;;;;;;;;;;;;;
2023/06/12 09:09:47;;;;;;;6.00;5.07;;;;;;;;;;4972985;28;20231;-88
2023/06/12 09:29:31;;;;;;;;;;;;;;;;;;;;;
2023/06/12 09:43:05;;;;;;;8.30;5.15;;;;;;;;;;5009950;23;20100;-80
2023/06/12 09:45:31;;;;;;;6.28;5.18;;;;;;;;;;5018811;28;20052;-80
2023/06/12 09:47:57;;;;;;;7.72;5.70;;;;;;;;;;5018232;28;20120;-80
2023/06/12 09:50:25;;;;;;;7.43;5.30;;;;;;;;;;5016847;28;20467;-80
2023/06/12 09:52:54;;;;;;;7.45;5.05;;;;;;;;;;5017540;28;20120;-80
2023/06/12 09:55:21;;;;;;;8.05;5.80;;;;;;;;;;5017004;28;20037;-80
2023/06/12 09:57:51;;;;;;;8.20;5.78;;;;;;;;;;5017436;28;20101;-81
2023/06/12 10:00:19;;;;;;;7.32;5.60;;;;;;;;;;5018472;28;20164;-81
2023/06/12 10:02:55;;;;;;;6.45;5.47;;;;;;;;;;5014629;28;20065;-80
2023/06/12 10:05:27;;;;;;;9.77;6.30;;;;;;;;;;5018422;28;20050;-80
2023/06/12 10:07:54;;;;;;;6.57;5.43;;;;;;;;;;5018350;28;20484;-80
2023/06/12 10:10:22;;;;;;;11.07;5.65;;;;;;;;;;5004004;28;20580;-80
2023/06/12 10:12:48;;;;;;;11.57;5.28;;;;;;;;;;5017669;28;20512;-80
2023/06/12 10:15:15;;;;;;;9.23;5.57;;;;;;;;;;5016525;28;20034;-80
2023/06/12 10:17:41;;;;;;;10.15;5.45;;;;;;;;;;5019363;28;20046;-79
2023/06/12 10:20:10;;;;;;;10.70;5.90;;;;;;;;;;5018164;28;20125;-80
2023/06/12 10:22:36;;;;;;;7.72;5.53;;;;;;;;;;5019092;28;20049;-80
2023/06/12 10:25:02;;;;;;;8.43;5.78;;;;;;;;;;4998869;28;20412;-85
2023/06/12 10:27:29;;;;;;;9.40;5.80;;;;;;;;;;5011755;28;20038;-80
2023/06/12 10:29:59;;;;;;;7.80;5.68;;;;;;;;;;5019766;28;20040;-80
2023/06/12 10:32:25;;;;;;;7.75;5.90;;;;;;;;;;5015976;28;20066;-81
2023/06/12 10:34:54;;;;;;;7.78;5.78;;;;;;;;;;5020949;28;20042;-80
2023/06/12 10:37:21;;;;;;;8.98;5.68;;;;;;;;;;5023087;28;20049;-81
2023/06/12 10:39:48;;;;;;;7.75;5.75;;;;;;;;;;5023587;28;20053;-80
2023/06/12 10:42:14;;;;;;;8.43;5.75;;;;;;;;;;5021751;28;20073;-80
2023/06/12 10:44:41;;;;;;;7.82;5.97;;;;;;;;;;5028550;28;20049;-81
2023/06/12 10:47:17;;;;;;;7.22;6.03;;;;;;;;;;5026546;28;20065;-79
2023/06/12 10:50:03;;;;;;;7.40;5.97;;;;;;;;;;5022815;28;20069;-79
2023/06/12 10:52:30;;;;;;;10.18;6.40;;;;;;;;;;5018786;28;20496;-78
2023/06/12 10:55:14;;;;;;;7.80;6.63;;;;;;;;;;5016916;28;20052;-78
2023/06/12 10:57:47;;;;;;;10.05;7.03;;;;;;;;;;5013407;28;20041;-79
2023/06/12 11:00:14;;;;;;;7.50;6.38;;;;;;;;;;5017023;28;20037;-79
2023/06/12 11:02:40;;;;;;;8.48;5.95;;;;;;;;;;5016109;28;20042;-79
2023/06/12 11:05:07;;;;;;;7.53;6.00;;;;;;;;;;5015996;28;20151;-79
2023/06/12 11:07:33;;;;;;;7.78;6.13;;;;;;;;;;5015348;28;20050;-79
2023/06/12 11:10:10;;;;;;;8.60;6.75;;;;;;;;;;5016703;28;20042;-79
2023/06/12 11:12:37;;;;;;;10.68;6.20;;;;;;;;;;5014056;28;20037;-79
2023/06/12 11:15:03;;;;;;;10.18;6.50;;;;;;;;;;5014880;28;20034;-79
2023/06/12 11:17:29;;;;;;;10.27;6.40;;;;;;;;;;5013234;28;20365;-79
2023/06/12 11:19:58;;;;;;;7.50;6.70;;;;;;;;;;5014960;28;20052;-79
2023/06/12 11:22:24;;;;;;;8.68;6.50;;;;;;;;;;5014437;28;20474;-79
2023/06/12 11:24:50;;;;;;;9.73;6.57;;;;;;;;;;5014198;28;20046;-79
2023/06/12 11:27:16;;;;;;;10.88;6.75;;;;;;;;;;5012010;28;20034;-78
2023/06/12 11:29:42;;;;;;;8.63;7.03;;;;;;;;;;5016066;28;20057;-79
2023/06/12 11:32:09;;;;;;;9.70;6.60;;;;;;;;;;5016989;28;20053;-79
2023/06/12 11:34:35;;;;;;;7.20;6.05;;;;;;;;;;5015729;28;20038;-79
2023/06/12 11:37:32;;;;;;;7.30;6.47;;;;;;;;;;5011088;28;20399;-79
2023/06/12 11:40:09;;;;;;;11.77;6.28;;;;;;;;;;5011165;28;20053;-79
2023/06/12 11:42:36;;;;;;;9.38;7.20;;;;;;;;;;5016827;28;20049;-79
2023/06/12 11:45:02;;;;;;;10.07;7.03;;;;;;;;;;5015456;28;20045;-79
2023/06/12 11:47:29;;;;;;;9.25;7.55;;;;;;;;;;5015102;28;20042;-79
2023/06/12 11:49:55;;;;;;;7.63;6.90;;;;;;;;;;5018327;28;20042;-79
2023/06/12 11:52:21;;;;;;;9.10;7.65;;;;;;;;;;5015386;28;20488;-79
2023/06/12 11:55:01;;;;;;;11.65;7.97;;;;;;;;;;5011058;28;20050;-79
2023/06/12 11:57:27;;;;;;;8.45;7.10;;;;;;;;;;5017621;28;20045;-79
2023/06/12 11:59:57;;;;;;;11.18;6.88;;;;;;;;;;5017713;28;20065;-78
2023/06/12 12:02:33;;;;;;;9.60;6.70;;;;;;;;;;5011917;28;20042;-78
2023/06/12 12:05:03;;;;;;;9.38;7.22;;;;;;;;;;5019068;28;20124;-79
2023/06/12 12:07:30;;;;;;;9.00;7.78;;;;;;;;;;5021726;28;20092;-79
2023/06/12 12:10:10;;;;;;;11.43;6.60;;;;;;;;;;5014365;28;20045;-79
2023/06/12 12:12:39;;;;;;;11.60;8.15;;;;;;;;;;5016798;28;20136;-79
2023/06/12 12:15:06;;;;;;;11.52;7.47;;;;;;;;;;5020709;28;20050;-79
2023/06/12 12:17:32;;;;;;;10.27;7.95;;;;;;;;;;5019634;28;20500;-79
2023/06/12 12:20:04;;;;;;;8.98;6.82;;;;;;;;;;5019077;28;20546;-79
2023/06/12 12:22:31;;;;;;;12.30;7.88;;;;;;;;;;5020765;28;20133;-79
2023/06/12 12:24:57;;;;;;;11.80;7.40;;;;;;;;;;5019941;28;20111;-79
2023/06/12 12:27:23;;;;;;;9.10;7.57;;;;;;;;;;5016856;28;20042;-79
2023/06/12 12:29:49;;;;;;;9.98;7.43;;;;;;;;;;5020101;28;20100;-78
2023/06/12 12:32:15;;;;;;;14.15;7.75;;;;;;;;;;5022950;28;20045;-79
2023/06/12 12:34:41;;;;;;;8.73;6.97;;;;;;;;;;5022558;28;20053;-79
2023/06/12 12:37:08;;;;;;;9.20;7.05;;;;;;;;;;5020320;28;20488;-79
2023/06/12 12:39:34;;;;;;;9.85;6.50;;;;;;;;;;5018006;28;20042;-79
2023/06/12 12:42:00;;;;;;;9.45;7.05;;;;;;;;;;5019517;28;20187;-79
2023/06/12 12:44:26;;;;;;;9.38;7.35;;;;;;;;;;5019738;28;20069;-79
2023/06/12 12:46:52;;;;;;;11.65;7.70;;;;;;;;;;5024776;28;20037;-79
2023/06/12 12:49:18;;;;;;;10.55;6.45;;;;;;;;;;5024803;28;20119;-79
2023/06/12 12:51:44;;;;;;;12.07;7.68;;;;;;;;;;5021294;28;20046;-82
2023/06/12 12:54:10;;;;;;;9.65;6.70;;;;;;;;;;5018889;28;20403;-79
2023/06/12 12:56:36;;;;;;;10.68;7.65;;;;;;;;;;5023646;28;20045;-79
2023/06/12 12:59:02;;;;;;;10.80;7.28;;;;;;;;;;5026824;28;20042;-79
2023/06/12 13:01:28;;;;;;;12.88;7.75;;;;;;;;;;5028023;28;20042;-79
2023/06/12 13:03:58;;;;;;;12.15;7.20;;;;;;;;;;5023028;28;20050;-78
2023/06/12 13:06:24;;;;;;;9.82;7.22;;;;;;;;;;5018097;28;20049;-78
2023/06/12 13:08:50;;;;;;;12.35;7.82;;;;;;;;;;5012105;28;20052;-78
2023/06/12 13:11:16;;;;;;;10.73;7.32;;;;;;;;;;5013400;28;20455;-78
2023/06/12 13:13:42;;;;;;;12.10;7.47;;;;;;;;;;5013724;28;20038;-78
2023/06/12 13:16:08;;;;;;;10.52;7.10;;;;;;;;;;5013455;28;20506;-77
2023/06/12 13:18:34;;;;;;;10.63;7.70;;;;;;;;;;5012529;28;20046;-78
2023/06/12 13:21:01;;;;;;;10.07;7.13;;;;;;;;;;5012864;28;20042;-78
2023/06/12 13:23:28;;;;;;;12.60;7.57;;;;;;;;;;5012253;28;20511;-78
2023/06/12 13:25:54;;;;;;;11.43;7.90;;;;;;;;;;5013638;28;20046;-78
2023/06/12 13:28:21;;;;;;;12.57;7.90;;;;;;;;;;5015493;28;20045;-78
2023/06/12 13:30:47;;;;;;;10.25;8.75;;;;;;;;;;5017026;28;20144;-79
2023/06/12 13:33:13;;;;;;;11.38;8.18;;;;;;;;;;5017882;28;20050;-79
2023/06/12 13:35:39;;;;;;;12.70;8.20;;;;;;;;;;5021048;28;20072;-79
2023/06/12 13:38:05;;;;;;;16.17;8.25;;;;;;;;;;5015360;28;20515;-79
2023/06/12 13:40:32;;;;;;;11.45;7.30;;;;;;;;;;4996165;28;20039;-79
2023/06/12 13:42:58;;;;;;;13.82;8.02;;;;;;;;;;4995246;28;20073;-79
2023/06/12 13:45:24;;;;;;;9.43;7.75;;;;;;;;;;5009435;28;20057;-79
2023/06/12 13:47:50;;;;;;;10.38;7.78;;;;;;;;;;5013935;28;20103;-79
2023/06/12 13:50:16;;;;;;;11.75;8.25;;;;;;;;;;5014801;28;20097;-79
2023/06/12 13:52:42;;;;;;;11.45;7.50;;;;;;;;;;5015792;28;20046;-79
2023/06/12 13:55:08;;;;;;;11.55;8.25;;;;;;;;;;5015586;28;20046;-79
2023/06/12 13:57:38;;;;;;;10.25;7.40;;;;;;;;;;5014857;28;20038;-79
2023/06/12 14:00:04;;;;;;;10.93;7.68;;;;;;;;;;5014060;28;20056;-79
2023/06/12 14:02:30;;;;;;;13.55;7.90;;;;;;;;;;5015622;28;20054;-79
2023/06/12 14:04:57;;;;;;;9.73;7.72;;;;;;;;;;5016129;28;20389;-79
2023/06/12 14:07:23;;;;;;;11.18;7.82;;;;;;;;;;5021444;28;20108;-79
2023/06/12 14:09:49;;;;;;;12.80;8.13;;;;;;;;;;5019484;28;20068;-79
2023/06/12 14:12:15;;;;;;;12.48;8.77;;;;;;;;;;5020066;28;20484;-79
2023/06/12 14:14:46;;;;;;;9.77;8.00;;;;;;;;;;5018773;28;20121;-79
2023/06/12 14:17:12;;;;;;;12.50;8.13;;;;;;;;;;5015127;28;20041;-79
2023/06/12 14:19:38;;;;;;;9.13;7.45;;;;;;;;;;5021725;28;20128;-79
2023/06/12 14:22:05;;;;;;;10.60;7.95;;;;;;;;;;5020792;28;20046;-79
2023/06/12 14:24:31;;;;;;;11.68;8.18;;;;;;;;;;5012962;28;20124;-79
2023/06/12 14:26:57;;;;;;;13.10;8.45;;;;;;;;;;5002918;28;20082;-78
2023/06/12 14:29:23;;;;;;;9.60;8.07;;;;;;;;;;5022890;28;20042;-79
2023/06/12 14:31:49;;;;;;;13.18;7.93;;;;;;;;;;5023773;28;20046;-79
2023/06/12 14:34:15;;;;;;;9.63;7.25;;;;;;;;;;5037677;28;20042;-84
2023/06/12 14:36:41;;;;;;;11.48;8.50;;;;;;;;;;5021451;28;20041;-79
2023/06/12 14:39:07;;;;;;;10.25;7.65;;;;;;;;;;5020337;28;20472;-79
2023/06/12 14:41:33;;;;;;;10.68;7.22;;;;;;;;;;5018523;28;20053;-79
2023/06/12 14:43:59;;;;;;;9.55;7.82;;;;;;;;;;5018238;28;20053;-79
2023/06/12 14:46:25;;;;;;;8.68;7.75;;;;;;;;;;5030920;28;20120;-79
2023/06/12 14:48:51;;;;;;;9.35;8.10;;;;;;;;;;5021517;28;20090;-79
2023/06/12 14:51:17;;;;;;;10.98;8.02;;;;;;;;;;5021245;28;20054;-79
2023/06/12 14:53:43;;;;;;;12.10;8.15;;;;;;;;;;5012603;28;20377;-79
2023/06/12 14:56:09;;;;;;;10.52;8.40;;;;;;;;;;5013046;28;20176;-79
2023/06/12 14:58:35;;;;;;;10.43;8.68;;;;;;;;;;5014140;28;20121;-79
2023/06/12 15:01:01;;;;;;;9.18;8.15;;;;;;;;;;5021327;28;20076;-79
2023/06/12 15:03:27;;;;;;;12.63;8.48;;;;;;;;;;5016070;28;20086;-78
2023/06/12 15:05:54;;;;;;;11.18;8.40;;;;;;;;;;5011321;28;20041;-78
2023/06/12 15:08:20;;;;;;;10.75;8.65;;;;;;;;;;5028795;28;20056;-79
2023/06/12 15:10:47;;;;;;;12.55;8.65;;;;;;;;;;5025660;28;20042;-79
2023/06/12 15:13:13;;;;;;;9.70;8.30;;;;;;;;;;5021810;28;20073;-82
2023/06/12 15:15:39;;;;;;;9.93;8.32;;;;;;;;;;5005396;28;20148;-84
2023/06/12 15:18:05;;;;;;;14.88;8.35;;;;;;;;;;5010596;28;20444;-79
2023/06/12 15:20:32;;;;;;;13.40;8.25;;;;;;;;;;5026610;28;20053;-79
2023/06/12 15:22:58;;;;;;;13.93;8.02;;;;;;;;;;5015224;28;20152;-79
2023/06/12 15:25:24;;;;;;;12.23;8.18;;;;;;;;;;5023985;28;20103;-79
2023/06/12 15:27:50;;;;;;;10.10;7.95;;;;;;;;;;5021056;28;20077;-79
2023/06/12 15:30:16;;;;;;;13.70;7.32;;;;;;;;;;5019286;28;20488;-79
2023/06/12 15:32:45;;;;;;;11.38;8.10;;;;;;;;;;5023247;28;20053;-79
2023/06/12 15:35:12;;;;;;;10.75;8.30;;;;;;;;;;5024978;28;20042;-79
2023/06/12 15:37:38;;;;;;;11.50;7.70;;;;;;;;;;5013245;28;20129;-79
2023/06/12 15:40:05;;;;;;;12.65;7.70;;;;;;;;;;5015614;28;20034;-79
2023/06/12 15:42:31;;;;;;;12.07;7.65;;;;;;;;;;5022648;28;20054;-79
2023/06/12 15:44:58;;;;;;;11.18;7.97;;;;;;;;;;5026372;28;20082;-79
2023/06/12 15:47:24;;;;;;;11.88;7.30;;;;;;;;;;5023986;28;20049;-79
2023/06/12 15:49:50;;;;;;;11.27;7.88;;;;;;;;;;5010121;28;20084;-79
2023/06/12 15:52:16;;;;;;;12.93;7.90;;;;;;;;;;5017295;28;20034;-79
2023/06/12 15:54:42;;;;;;;16.05;8.85;;;;;;;;;;5023724;28;20042;-79
2023/06/12 15:57:08;;;;;;;12.27;8.00;;;;;;;;;;5013056;28;20046;-79
2023/06/12 15:59:34;;;;;;;14.13;8.43;;;;;;;;;;5014374;28;20065;-79